Details for AirAsia Thailand at VTSG




Go Back


Latest METAR
Local Time

VTSG 180600Z 23016G26KT 200V260 9999 BKN020 31/26 Q1006 NOSIG
18/08/2018, 13:28:07

Description
Results
AirAsia Thailand Logo
Number of Pilots based at VTSG
0 Pilots Based here
Number of AirAsia Thailand Flights Departed from VTSG
0 Flights Departed
Number of AirAsia Thailand Flights Arrived at VTSG
0 Flights Arrived
Number of AirAsia Thailand Schedules Departing from VTSG
11 Schedules
Number of AirAsia Thailand Schedules Arriving at VTSG
11 Schedules
Number of AirAsia Thailand Schedules Departing from VTSG availible today
11 Schedules Today
Number of AirAsia Thailand Schedules Arriving at VTSG availible today
11 Schedules Today
Average Landing Rate at VTSG
0 fpm
AirAsia Thailand Average Landing Rate at VTSG
0 fpm
Total Fuel Purchased at VTSG by AirAsia Thailand
0.00 kgs / 0.00 lbs

Pilots Based at VTSG


Pilot ID
Pilot Name
Pilot Rank
No. of Flights
No. of Flying Hours
There are no pilots assigned to this hub!   Will you be the first?
Content